sensor_id;sensor_type;location;lat;lon;timestamp;pressure;altitude;pressure_sealevel;temperature;humidity
66176;BME280;52977;44.816;20.538;2023-02-22T00:01:40;99809.22;;;12.39;60.81
66176;BME280;52977;44.816;20.538;2023-02-22T00:04:16;99770.63;;;12.10;61.09
66176;BME280;52977;44.816;20.538;2023-02-22T00:06:46;99800.63;;;12.28;61.11
66176;BME280;52977;44.816;20.538;2023-02-22T00:09:13;99790.13;;;12.30;60.94
66176;BME280;52977;44.816;20.538;2023-02-22T00:11:46;99803.03;;;12.29;60.78
66176;BME280;52977;44.816;20.538;2023-02-22T00:14:13;99792.44;;;12.19;61.26
66176;BME280;52977;44.816;20.538;2023-02-22T00:16:39;99786.50;;;12.17;61.35
66176;BME280;52977;44.816;20.538;2023-02-22T00:19:05;99808.69;;;12.24;61.38
66176;BME280;52977;44.816;20.538;2023-02-22T00:21:31;99802.09;;;12.25;61.41
66176;BME280;52977;44.816;20.538;2023-02-22T00:23:58;99803.16;;;12.33;61.46
66176;BME280;52977;44.816;20.538;2023-02-22T00:26:24;99782.09;;;12.25;61.12
66176;BME280;52977;44.816;20.538;2023-02-22T00:28:52;99803.91;;;12.42;60.72
66176;BME280;52977;44.816;20.538;2023-02-22T00:31:19;99790.28;;;12.34;61.07
66176;BME280;52977;44.816;20.538;2023-02-22T00:33:48;99759.16;;;12.17;60.87
66176;BME280;52977;44.816;20.538;2023-02-22T00:36:16;99740.69;;;12.05;60.96
66176;BME280;52977;44.816;20.538;2023-02-22T00:38:42;99801.03;;;12.39;61.14
66176;BME280;52977;44.816;20.538;2023-02-22T00:41:09;99803.63;;;12.35;61.08
66176;BME280;52977;44.816;20.538;2023-02-22T00:43:36;99777.03;;;12.14;61.26
66176;BME280;52977;44.816;20.538;2023-02-22T00:46:03;99777.63;;;12.20;61.30
66176;BME280;52977;44.816;20.538;2023-02-22T00:48:29;99761.94;;;12.08;61.46
66176;BME280;52977;44.816;20.538;2023-02-22T00:50:56;99766.03;;;12.23;61.55
66176;BME280;52977;44.816;20.538;2023-02-22T00:53:23;99743.09;;;12.07;61.73
66176;BME280;52977;44.816;20.538;2023-02-22T00:55:50;99767.28;;;12.26;61.28
66176;BME280;52977;44.816;20.538;2023-02-22T00:58:18;99784.59;;;12.39;61.53
66176;BME280;52977;44.816;20.538;2023-02-22T01:00:45;99762.44;;;12.31;61.20
66176;BME280;52977;44.816;20.538;2023-02-22T01:03:15;99783.56;;;12.52;61.40
66176;BME280;52977;44.816;20.538;2023-02-22T01:05:42;99742.41;;;12.19;61.34
66176;BME280;52977;44.816;20.538;2023-02-22T01:08:10;99768.78;;;12.44;61.22
66176;BME280;52977;44.816;20.538;2023-02-22T01:10:37;99730.19;;;12.16;61.13
66176;BME280;52977;44.816;20.538;2023-02-22T01:13:05;99780.13;;;12.55;61.42
66176;BME280;52977;44.816;20.538;2023-02-22T01:15:35;99758.97;;;12.43;61.38
66176;BME280;52977;44.816;20.538;2023-02-22T01:18:02;99755.75;;;12.41;61.17
66176;BME280;52977;44.816;20.538;2023-02-22T01:20:31;99773.38;;;12.53;61.37
66176;BME280;52977;44.816;20.538;2023-02-22T01:23:00;99708.69;;;12.06;61.32
66176;BME280;52977;44.816;20.538;2023-02-22T01:25:30;99769.72;;;12.48;61.78
66176;BME280;52977;44.816;20.538;2023-02-22T01:27:58;99681.28;;;11.85;61.72
66176;BME280;52977;44.816;20.538;2023-02-22T01:30:27;99740.41;;;12.28;61.60
66176;BME280;52977;44.816;20.538;2023-02-22T01:32:55;99784.56;;;12.47;61.35
66176;BME280;52977;44.816;20.538;2023-02-22T01:35:29;99717.75;;;12.19;61.37
66176;BME280;52977;44.816;20.538;2023-02-22T01:37:57;99715.22;;;12.13;61.33
66176;BME280;52977;44.816;20.538;2023-02-22T01:40:29;99765.84;;;12.50;61.44
66176;BME280;52977;44.816;20.538;2023-02-22T01:42:58;99767.31;;;12.47;61.46
66176;BME280;52977;44.816;20.538;2023-02-22T01:48:55;99770.38;;;12.45;61.56
66176;BME280;52977;44.816;20.538;2023-02-22T01:56:18;99699.88;;;12.00;61.30
66176;BME280;52977;44.816;20.538;2023-02-22T01:58:48;99771.19;;;12.46;61.21
66176;BME280;52977;44.816;20.538;2023-02-22T02:01:16;99767.47;;;12.51;61.25
66176;BME280;52977;44.816;20.538;2023-02-22T02:03:43;99741.81;;;12.34;60.98
66176;BME280;52977;44.816;20.538;2023-02-22T02:06:13;99730.00;;;12.21;61.33
66176;BME280;52977;44.816;20.538;2023-02-22T02:08:47;99741.13;;;12.16;61.47
66176;BME280;52977;44.816;20.538;2023-02-22T02:11:20;99766.25;;;12.39;61.39
66176;BME280;52977;44.816;20.538;2023-02-22T02:13:49;99762.69;;;12.39;61.38
66176;BME280;52977;44.816;20.538;2023-02-22T02:16:17;99744.78;;;12.20;61.50
66176;BME280;52977;44.816;20.538;2023-02-22T02:18:43;99769.84;;;12.31;61.70
66176;BME280;52977;44.816;20.538;2023-02-22T02:27:07;99725.03;;;12.14;61.41
66176;BME280;52977;44.816;20.538;2023-02-22T02:43:06;99784.88;;;11.39;65.12
66176;BME280;52977;44.816;20.538;2023-02-22T02:46:25;99783.66;;;10.66;67.40
66176;BME280;52977;44.816;20.538;2023-02-22T02:48:27;99791.69;;;10.89;67.20
66176;BME280;52977;44.816;20.538;2023-02-22T02:50:57;99710.28;;;10.65;66.37
66176;BME280;52977;44.816;20.538;2023-02-22T02:53:34;99770.13;;;11.22;65.20
66176;BME280;52977;44.816;20.538;2023-02-22T02:56:02;99781.00;;;11.40;64.77
66176;BME280;52977;44.816;20.538;2023-02-22T02:58:28;99784.22;;;11.42;64.36
66176;BME280;52977;44.816;20.538;2023-02-22T03:00:57;99795.44;;;11.49;64.32
66176;BME280;52977;44.816;20.538;2023-02-22T03:06:29;99801.16;;;10.91;66.98
66176;BME280;52977;44.816;20.538;2023-02-22T03:11:43;99761.31;;;10.64;66.08
66176;BME280;52977;44.816;20.538;2023-02-22T03:14:38;99743.16;;;10.77;65.96
66176;BME280;52977;44.816;20.538;2023-02-22T03:17:25;99802.56;;;11.24;65.37
66176;BME280;52977;44.816;20.538;2023-02-22T03:20:33;99812.19;;;11.39;64.71
66176;BME280;52977;44.816;20.538;2023-02-22T03:26:03;99737.22;;;10.84;65.06
66176;BME280;52977;44.816;20.538;2023-02-22T03:28:35;99656.31;;;10.35;65.14
66176;BME280;52977;44.816;20.538;2023-02-22T03:31:09;99812.69;;;11.32;64.64
66176;BME280;52977;44.816;20.538;2023-02-22T03:33:46;99770.47;;;11.03;65.18
66176;BME280;52977;44.816;20.538;2023-02-22T03:36:25;99811.72;;;11.28;64.94
66176;BME280;52977;44.816;20.538;2023-02-22T03:38:54;99817.84;;;11.25;65.04
66176;BME280;52977;44.816;20.538;2023-02-22T03:41:24;99819.78;;;11.16;64.93
66176;BME280;52977;44.816;20.538;2023-02-22T03:44:01;99812.88;;;11.09;65.42
66176;BME280;52977;44.816;20.538;2023-02-22T03:46:29;99769.53;;;10.82;65.26
66176;BME280;52977;44.816;20.538;2023-02-22T03:49:09;99825.09;;;11.21;65.43
66176;BME280;52977;44.816;20.538;2023-02-22T03:51:38;99817.53;;;11.18;64.68
66176;BME280;52977;44.816;20.538;2023-02-22T03:54:06;99820.72;;;11.28;64.49
66176;BME280;52977;44.816;20.538;2023-02-22T03:56:43;99792.16;;;11.08;63.82
66176;BME280;52977;44.816;20.538;2023-02-22T03:59:12;99826.03;;;11.34;63.95
66176;BME280;52977;44.816;20.538;2023-02-22T04:01:39;99756.19;;;10.89;63.59
66176;BME280;52977;44.816;20.538;2023-02-22T04:04:05;99791.38;;;11.08;63.57
66176;BME280;52977;44.816;20.538;2023-02-22T04:06:34;99826.19;;;11.37;62.86
66176;BME280;52977;44.816;20.538;2023-02-22T04:09:00;99840.16;;;11.44;62.53
66176;BME280;52977;44.816;20.538;2023-02-22T04:11:27;99830.19;;;11.49;62.68
66176;BME280;52977;44.816;20.538;2023-02-22T04:13:53;99823.28;;;11.42;62.40
66176;BME280;52977;44.816;20.538;2023-02-22T04:16:20;99778.81;;;11.07;62.02
66176;BME280;52977;44.816;20.538;2023-02-22T04:18:46;99875.06;;;11.30;62.23
66176;BME280;52977;44.816;20.538;2023-02-22T04:21:16;99823.16;;;11.21;62.37
66176;BME280;52977;44.816;20.538;2023-02-22T04:23:45;99773.53;;;10.93;62.55
66176;BME280;52977;44.816;20.538;2023-02-22T04:26:12;99808.84;;;11.24;62.55
66176;BME280;52977;44.816;20.538;2023-02-22T04:28:38;99821.69;;;11.41;62.16
66176;BME280;52977;44.816;20.538;2023-02-22T04:31:11;99759.19;;;11.05;61.84
66176;BME280;52977;44.816;20.538;2023-02-22T04:33:39;99795.34;;;11.28;61.71
66176;BME280;52977;44.816;20.538;2023-02-22T04:36:07;99824.72;;;11.49;61.55
66176;BME280;52977;44.816;20.538;2023-02-22T04:38:34;99757.28;;;11.05;61.27
66176;BME280;52977;44.816;20.538;2023-02-22T04:41:01;99760.63;;;11.20;61.53
66176;BME280;52977;44.816;20.538;2023-02-22T04:43:27;99822.94;;;11.53;61.52
66176;BME280;52977;44.816;20.538;2023-02-22T04:46:02;99807.69;;;11.43;61.78
66176;BME280;52977;44.816;20.538;2023-02-22T04:48:29;99798.22;;;11.40;61.59
66176;BME280;52977;44.816;20.538;2023-02-22T04:50:55;99789.72;;;11.33;62.06
66176;BME280;52977;44.816;20.538;2023-02-22T04:53:22;99779.72;;;11.28;61.87
66176;BME280;52977;44.816;20.538;2023-02-22T04:55:48;99812.81;;;11.53;62.02
66176;BME280;52977;44.816;20.538;2023-02-22T04:58:15;99800.13;;;11.49;61.86
66176;BME280;52977;44.816;20.538;2023-02-22T05:00:41;99692.56;;;10.80;61.88
66176;BME280;52977;44.816;20.538;2023-02-22T05:03:08;99811.69;;;11.54;61.79
66176;BME280;52977;44.816;20.538;2023-02-22T05:05:34;99807.34;;;11.53;61.93
66176;BME280;52977;44.816;20.538;2023-02-22T05:08:00;99700.00;;;10.70;61.79
66176;BME280;52977;44.816;20.538;2023-02-22T05:10:26;99810.88;;;11.45;62.29
66176;BME280;52977;44.816;20.538;2023-02-22T05:12:52;99771.13;;;11.00;62.56
66176;BME280;52977;44.816;20.538;2023-02-22T05:15:20;99817.19;;;11.37;62.60
66176;BME280;52977;44.816;20.538;2023-02-22T05:17:47;99821.22;;;11.31;63.01
66176;BME280;52977;44.816;20.538;2023-02-22T05:22:47;99753.28;;;10.94;62.81
66176;BME280;52977;44.816;20.538;2023-02-22T05:25:13;99755.69;;;10.96;62.75
66176;BME280;52977;44.816;20.538;2023-02-22T05:27:40;99795.69;;;11.18;62.78
66176;BME280;52977;44.816;20.538;2023-02-22T05:30:06;99761.63;;;10.98;62.77
66176;BME280;52977;44.816;20.538;2023-02-22T05:32:34;99840.50;;;11.43;62.62
66176;BME280;52977;44.816;20.538;2023-02-22T05:35:00;99821.88;;;11.27;62.95
66176;BME280;52977;44.816;20.538;2023-02-22T05:37:26;99821.06;;;11.27;62.96
66176;BME280;52977;44.816;20.538;2023-02-22T05:39:52;99819.44;;;11.26;62.95
66176;BME280;52977;44.816;20.538;2023-02-22T05:42:20;99808.19;;;11.19;62.90
66176;BME280;52977;44.816;20.538;2023-02-22T05:44:48;99837.13;;;11.37;62.69
66176;BME280;52977;44.816;20.538;2023-02-22T05:47:14;99799.22;;;11.09;62.47
66176;BME280;52977;44.816;20.538;2023-02-22T05:49:40;99848.69;;;11.43;62.98
66176;BME280;52977;44.816;20.538;2023-02-22T05:52:06;99823.00;;;11.18;62.36
66176;BME280;52977;44.816;20.538;2023-02-22T05:54:33;99812.69;;;11.15;62.77
66176;BME280;52977;44.816;20.538;2023-02-22T05:56:59;99859.28;;;11.44;62.70
66176;BME280;52977;44.816;20.538;2023-02-22T05:59:25;99848.06;;;11.28;62.76
66176;BME280;52977;44.816;20.538;2023-02-22T06:01:52;99872.63;;;11.46;62.58
66176;BME280;52977;44.816;20.538;2023-02-22T06:04:18;99817.06;;;11.07;62.66
66176;BME280;52977;44.816;20.538;2023-02-22T06:06:45;99869.28;;;11.40;63.03
66176;BME280;52977;44.816;20.538;2023-02-22T06:09:11;99877.16;;;11.42;62.56
66176;BME280;52977;44.816;20.538;2023-02-22T06:11:38;99864.44;;;11.28;62.63
66176;BME280;52977;44.816;20.538;2023-02-22T06:14:04;99888.72;;;11.39;63.17
66176;BME280;52977;44.816;20.538;2023-02-22T06:16:30;99893.38;;;11.38;62.86
66176;BME280;52977;44.816;20.538;2023-02-22T06:18:57;99890.31;;;11.40;63.21
66176;BME280;52977;44.816;20.538;2023-02-22T06:21:25;99863.47;;;11.24;62.99
66176;BME280;52977;44.816;20.538;2023-02-22T06:23:52;99887.13;;;11.38;62.75
66176;BME280;52977;44.816;20.538;2023-02-22T06:26:18;99840.19;;;11.01;62.79
66176;BME280;52977;44.816;20.538;2023-02-22T06:28:45;99843.91;;;11.14;62.74
66176;BME280;52977;44.816;20.538;2023-02-22T06:31:12;99882.44;;;11.38;62.92
66176;BME280;52977;44.816;20.538;2023-02-22T06:33:38;99852.41;;;11.12;62.71
66176;BME280;52977;44.816;20.538;2023-02-22T06:36:04;99895.31;;;11.46;62.63
66176;BME280;52977;44.816;20.538;2023-02-22T06:38:31;99907.34;;;11.45;62.43
66176;BME280;52977;44.816;20.538;2023-02-22T06:40:58;99909.31;;;11.27;63.67
66176;BME280;52977;44.816;20.538;2023-02-22T06:43:24;99904.97;;;11.35;63.33
66176;BME280;52977;44.816;20.538;2023-02-22T06:45:52;99904.16;;;11.43;63.20
66176;BME280;52977;44.816;20.538;2023-02-22T06:48:22;99912.34;;;11.52;62.72
66176;BME280;52977;44.816;20.538;2023-02-22T06:50:48;99908.94;;;11.55;62.76
66176;BME280;52977;44.816;20.538;2023-02-22T06:53:14;99913.16;;;11.53;62.61
66176;BME280;52977;44.816;20.538;2023-02-22T06:55:41;99879.91;;;11.33;62.49
66176;BME280;52977;44.816;20.538;2023-02-22T06:58:06;99913.63;;;11.55;62.81
66176;BME280;52977;44.816;20.538;2023-02-22T07:00:32;99912.19;;;11.57;62.37
66176;BME280;52977;44.816;20.538;2023-02-22T07:02:59;99879.56;;;11.35;62.52
66176;BME280;52977;44.816;20.538;2023-02-22T07:05:27;99879.38;;;11.40;62.46
66176;BME280;52977;44.816;20.538;2023-02-22T07:07:58;99857.06;;;11.29;62.62
66176;BME280;52977;44.816;20.538;2023-02-22T07:10:28;99909.91;;;11.68;62.51
66176;BME280;52977;44.816;20.538;2023-02-22T07:12:55;99897.88;;;11.52;62.45
66176;BME280;52977;44.816;20.538;2023-02-22T07:15:23;99916.97;;;11.69;62.58
66176;BME280;52977;44.816;20.538;2023-02-22T07:17:50;99898.34;;;11.54;62.50
66176;BME280;52977;44.816;20.538;2023-02-22T07:20:17;99905.72;;;11.62;62.76
66176;BME280;52977;44.816;20.538;2023-02-22T07:22:46;99907.16;;;11.77;62.44
66176;BME280;52977;44.816;20.538;2023-02-22T07:25:12;99918.91;;;11.69;62.50
66176;BME280;52977;44.816;20.538;2023-02-22T07:27:39;99909.09;;;11.68;62.62
66176;BME280;52977;44.816;20.538;2023-02-22T07:30:14;99922.16;;;11.71;62.29
66176;BME280;52977;44.816;20.538;2023-02-22T07:32:42;99920.38;;;11.66;62.68
66176;BME280;52977;44.816;20.538;2023-02-22T07:35:31;99902.84;;;11.50;62.48
66176;BME280;52977;44.816;20.538;2023-02-22T07:37:58;99856.56;;;11.27;63.01
66176;BME280;52977;44.816;20.538;2023-02-22T07:40:25;99902.84;;;11.67;62.73
66176;BME280;52977;44.816;20.538;2023-02-22T07:45:40;99911.66;;;11.82;62.30
66176;BME280;52977;44.816;20.538;2023-02-22T07:48:07;99909.88;;;11.86;61.87
66176;BME280;52977;44.816;20.538;2023-02-22T07:50:34;99845.13;;;11.42;62.13
66176;BME280;52977;44.816;20.538;2023-02-22T07:53:06;99893.16;;;11.78;62.33
66176;BME280;52977;44.816;20.538;2023-02-22T07:55:33;99904.78;;;11.49;63.60
66176;BME280;52977;44.816;20.538;2023-02-22T07:58:01;99908.81;;;11.52;63.69
66176;BME280;52977;44.816;20.538;2023-02-22T08:00:30;99815.78;;;10.96;63.88
66176;BME280;52977;44.816;20.538;2023-02-22T08:02:58;99935.50;;;11.20;64.52
66176;BME280;52977;44.816;20.538;2023-02-22T08:05:25;99897.56;;;11.44;63.93
66176;BME280;52977;44.816;20.538;2023-02-22T08:07:52;99904.63;;;11.45;64.07
66176;BME280;52977;44.816;20.538;2023-02-22T08:10:21;99890.81;;;11.33;64.20
66176;BME280;52977;44.816;20.538;2023-02-22T08:12:48;99893.88;;;11.40;63.77
66176;BME280;52977;44.816;20.538;2023-02-22T08:17:54;99903.66;;;11.59;63.26
66176;BME280;52977;44.816;20.538;2023-02-22T08:20:21;99908.31;;;11.41;64.03
66176;BME280;52977;44.816;20.538;2023-02-22T08:22:48;99859.34;;;11.09;64.03
66176;BME280;52977;44.816;20.538;2023-02-22T08:25:16;99899.81;;;11.25;64.79
66176;BME280;52977;44.816;20.538;2023-02-22T08:27:44;99905.28;;;11.34;64.02
66176;BME280;52977;44.816;20.538;2023-02-22T08:30:13;99903.97;;;11.40;64.30
66176;BME280;52977;44.816;20.538;2023-02-22T08:32:42;99908.50;;;11.44;63.90
66176;BME280;52977;44.816;20.538;2023-02-22T08:35:08;99908.34;;;11.32;64.27
66176;BME280;52977;44.816;20.538;2023-02-22T08:37:34;99896.41;;;11.45;63.63
66176;BME280;52977;44.816;20.538;2023-02-22T08:40:01;99897.25;;;11.37;63.73
66176;BME280;52977;44.816;20.538;2023-02-22T08:42:27;99885.03;;;11.26;63.87
66176;BME280;52977;44.816;20.538;2023-02-22T08:44:53;99881.66;;;11.20;64.08
66176;BME280;52977;44.816;20.538;2023-02-22T08:47:19;99906.06;;;11.60;63.57
66176;BME280;52977;44.816;20.538;2023-02-22T08:49:45;99914.91;;;11.57;63.89
66176;BME280;52977;44.816;20.538;2023-02-22T08:52:12;99899.66;;;11.48;63.47
66176;BME280;52977;44.816;20.538;2023-02-22T08:54:38;99927.44;;;11.50;63.98
66176;BME280;52977;44.816;20.538;2023-02-22T08:57:04;99917.16;;;11.64;63.32
66176;BME280;52977;44.816;20.538;2023-02-22T08:59:30;99913.94;;;11.71;62.48
66176;BME280;52977;44.816;20.538;2023-02-22T09:01:57;99909.72;;;11.73;62.33
66176;BME280;52977;44.816;20.538;2023-02-22T09:04:23;99870.06;;;11.41;62.46
66176;BME280;52977;44.816;20.538;2023-02-22T09:06:49;99869.91;;;11.46;62.41
66176;BME280;52977;44.816;20.538;2023-02-22T09:09:18;99917.78;;;11.78;62.43
66176;BME280;52977;44.816;20.538;2023-02-22T09:11:47;99871.50;;;11.56;62.32
66176;BME280;52977;44.816;20.538;2023-02-22T09:14:13;99906.69;;;11.75;62.11
66176;BME280;52977;44.816;20.538;2023-02-22T09:16:43;99850.16;;;11.32;62.91
66176;BME280;52977;44.816;20.538;2023-02-22T09:19:12;99894.63;;;11.67;62.48
66176;BME280;52977;44.816;20.538;2023-02-22T09:21:39;99887.09;;;11.64;62.29
66176;BME280;52977;44.816;20.538;2023-02-22T09:24:06;99886.91;;;11.69;62.08
66176;BME280;52977;44.816;20.538;2023-02-22T09:26:36;99831.16;;;11.44;61.58
66176;BME280;52977;44.816;20.538;2023-02-22T09:29:08;99875.13;;;11.86;61.91
66176;BME280;52977;44.816;20.538;2023-02-22T09:31:39;99910.16;;;12.10;62.08
66176;BME280;52977;44.816;20.538;2023-02-22T09:34:07;99921.06;;;12.19;61.30
66176;BME280;52977;44.816;20.538;2023-02-22T09:36:40;99847.63;;;11.83;61.53
66176;BME280;52977;44.816;20.538;2023-02-22T09:39:06;99878.44;;;12.09;61.28
66176;BME280;52977;44.816;20.538;2023-02-22T09:42:32;99897.88;;;12.25;61.52
66176;BME280;52977;44.816;20.538;2023-02-22T09:45:19;99902.53;;;12.25;61.75
66176;BME280;52977;44.816;20.538;2023-02-22T09:47:58;99887.94;;;12.42;61.13
66176;BME280;52977;44.816;20.538;2023-02-22T09:50:30;99832.31;;;11.99;61.46
66176;BME280;52977;44.816;20.538;2023-02-22T09:55:45;99882.47;;;12.42;61.16
66176;BME280;52977;44.816;20.538;2023-02-22T10:00:44;99883.16;;;12.69;60.50
66176;BME280;52977;44.816;20.538;2023-02-22T10:06:14;99889.69;;;12.76;60.00
66176;BME280;52977;44.816;20.538;2023-02-22T10:08:42;99879.88;;;12.75;59.78
66176;BME280;52977;44.816;20.538;2023-02-22T10:11:27;99880.41;;;12.69;59.88
66176;BME280;52977;44.816;20.538;2023-02-22T10:14:10;99876.50;;;12.48;60.66
66176;BME280;52977;44.816;20.538;2023-02-22T10:17:04;99873.41;;;12.50;60.72
66176;BME280;52977;44.816;20.538;2023-02-22T10:22:34;99870.50;;;12.55;60.35
66176;BME280;52977;44.816;20.538;2023-02-22T10:25:04;99874.97;;;12.60;60.46
66176;BME280;52977;44.816;20.538;2023-02-22T10:27:45;99880.25;;;12.65;60.61
66176;BME280;52977;44.816;20.538;2023-02-22T10:30:22;99877.81;;;12.72;59.97
66176;BME280;52977;44.816;20.538;2023-02-22T10:32:58;99866.56;;;12.65;60.37
66176;BME280;52977;44.816;20.538;2023-02-22T10:35:32;99858.97;;;12.71;60.45
66176;BME280;52977;44.816;20.538;2023-02-22T10:38:01;99849.97;;;12.70;60.42
66176;BME280;52977;44.816;20.538;2023-02-22T10:40:32;99813.41;;;12.45;59.98
66176;BME280;52977;44.816;20.538;2023-02-22T10:43:03;99790.22;;;12.42;60.29
66176;BME280;52977;44.816;20.538;2023-02-22T10:45:31;99841.06;;;12.73;60.14
66176;BME280;52977;44.816;20.538;2023-02-22T10:48:04;99819.41;;;12.80;60.12
66176;BME280;52977;44.816;20.538;2023-02-22T10:50:34;99837.47;;;13.03;60.00
66176;BME280;52977;44.816;20.538;2023-02-22T10:53:01;99758.50;;;12.62;59.67
66176;BME280;52977;44.816;20.538;2023-02-22T10:55:28;99800.22;;;13.02;59.81
66176;BME280;52977;44.816;20.538;2023-02-22T10:58:01;99816.97;;;13.21;59.54
66176;BME280;52977;44.816;20.538;2023-02-22T11:00:31;99809.81;;;13.29;59.19
66176;BME280;52977;44.816;20.538;2023-02-22T11:03:20;99720.16;;;12.62;59.39
66176;BME280;52977;44.816;20.538;2023-02-22T11:05:47;99817.63;;;13.39;59.09
66176;BME280;52977;44.816;20.538;2023-02-22T11:10:48;99803.06;;;13.60;58.51
66176;BME280;52977;44.816;20.538;2023-02-22T11:15:58;99774.59;;;13.52;58.24
66176;BME280;52977;44.816;20.538;2023-02-22T11:18:31;99779.50;;;13.46;58.29
66176;BME280;52977;44.816;20.538;2023-02-22T11:21:07;99791.88;;;13.65;58.09
66176;BME280;52977;44.816;20.538;2023-02-22T11:23:36;99730.53;;;13.24;57.85
66176;BME280;52977;44.816;20.538;2023-02-22T11:26:13;99740.44;;;13.49;57.11
66176;BME280;52977;44.816;20.538;2023-02-22T11:28:43;99790.75;;;13.91;57.20
66176;BME280;52977;44.816;20.538;2023-02-22T11:31:20;99776.13;;;13.99;56.94
66176;BME280;52977;44.816;20.538;2023-02-22T11:33:57;99784.25;;;13.95;57.14
66176;BME280;52977;44.816;20.538;2023-02-22T11:36:53;99776.13;;;13.99;57.11
66176;BME280;52977;44.816;20.538;2023-02-22T11:39:25;99769.38;;;14.09;56.35
66176;BME280;52977;44.816;20.538;2023-02-22T11:41:53;99686.03;;;13.52;56.74
66176;BME280;52977;44.816;20.538;2023-02-22T11:44:30;99764.91;;;14.16;56.20
66176;BME280;52977;44.816;20.538;2023-02-22T11:47:00;99765.84;;;14.21;56.19
66176;BME280;52977;44.816;20.538;2023-02-22T11:49:34;99762.06;;;14.13;56.32
66176;BME280;52977;44.816;20.538;2023-02-22T11:52:30;99653.84;;;13.48;56.35
66176;BME280;52977;44.816;20.538;2023-02-22T12:00:30;99727.66;;;13.91;56.84
66176;BME280;52977;44.816;20.538;2023-02-22T12:03:45;99751.44;;;13.99;56.46
66176;BME280;52977;44.816;20.538;2023-02-22T12:06:25;99751.44;;;13.99;57.36
66176;BME280;52977;44.816;20.538;2023-02-22T12:11:46;99748.22;;;14.09;56.79
66176;BME280;52977;44.816;20.538;2023-02-22T12:19:52;99680.66;;;13.92;55.72
66176;BME280;52977;44.816;20.538;2023-02-22T12:24:57;99680.75;;;14.08;55.47
66176;BME280;52977;44.816;20.538;2023-02-22T12:27:39;99721.00;;;14.57;55.20
66176;BME280;52977;44.816;20.538;2023-02-22T12:30:22;99736.00;;;14.72;55.20
66176;BME280;52977;44.816;20.538;2023-02-22T12:32:51;99715.78;;;14.80;54.47
66176;BME280;52977;44.816;20.538;2023-02-22T12:35:29;99631.13;;;14.42;54.00
66176;BME280;52977;44.816;20.538;2023-02-22T12:57:13;99614.56;;;14.82;53.31
66176;BME280;52977;44.816;20.538;2023-02-22T12:59:50;99719.16;;;15.50;53.05
66176;BME280;52977;44.816;20.538;2023-02-22T13:04:46;99718.66;;;15.60;52.96
66176;BME280;52977;44.816;20.538;2023-02-22T13:07:24;99711.53;;;15.75;52.59
66176;BME280;52977;44.816;20.538;2023-02-22T13:18:28;99693.69;;;15.85;51.82
66176;BME280;52977;44.816;20.538;2023-02-22T13:23:52;99696.97;;;15.91;51.97
66176;BME280;52977;44.816;20.538;2023-02-22T13:26:31;99706.91;;;15.95;51.94
66176;BME280;52977;44.816;20.538;2023-02-22T13:29:12;99700.63;;;16.14;51.72
66176;BME280;52977;44.816;20.538;2023-02-22T13:31:48;99703.19;;;16.03;51.38
66176;BME280;52977;44.816;20.538;2023-02-22T13:34:36;99645.09;;;15.41;52.24
66176;BME280;52977;44.816;20.538;2023-02-22T13:37:32;99705.44;;;15.82;52.04
66176;BME280;52977;44.816;20.538;2023-02-22T13:50:47;99701.25;;;15.56;52.55
66176;BME280;52977;44.816;20.538;2023-02-22T13:53:22;99670.38;;;15.31;52.59
66176;BME280;52977;44.816;20.538;2023-02-22T13:55:55;99682.78;;;15.09;53.42
66176;BME280;52977;44.816;20.538;2023-02-22T13:58:23;99701.50;;;15.03;54.37
66176;BME280;52977;44.816;20.538;2023-02-22T14:00:52;99678.91;;;14.81;54.44
66176;BME280;52977;44.816;20.538;2023-02-22T14:05:52;99687.53;;;14.96;55.23
66176;BME280;52977;44.816;20.538;2023-02-22T14:10:59;99687.75;;;15.03;54.94
66176;BME280;52977;44.816;20.538;2023-02-22T14:13:27;99704.59;;;15.17;55.59
66176;BME280;52977;44.816;20.538;2023-02-22T14:18:24;99705.34;;;15.46;54.91
66176;BME280;52977;44.816;20.538;2023-02-22T14:21:12;99692.03;;;15.32;54.69
66176;BME280;52977;44.816;20.538;2023-02-22T14:34:19;99655.38;;;15.12;54.47
66176;BME280;52977;44.816;20.538;2023-02-22T14:36:56;99693.53;;;15.62;54.39
66176;BME280;52977;44.816;20.538;2023-02-22T14:39:33;99668.94;;;15.53;53.52
66176;BME280;52977;44.816;20.538;2023-02-22T14:47:37;99686.88;;;15.47;53.66
66176;BME280;52977;44.816;20.538;2023-02-22T14:50:07;99665.59;;;15.12;54.54
66176;BME280;52977;44.816;20.538;2023-02-22T14:52:39;99681.28;;;15.43;54.81
66176;BME280;52977;44.816;20.538;2023-02-22T14:57:48;99685.47;;;15.21;54.77
66176;BME280;52977;44.816;20.538;2023-02-22T15:00:26;99685.25;;;15.14;54.78
66176;BME280;52977;44.816;20.538;2023-02-22T15:02:58;99663.00;;;15.03;55.14
66176;BME280;52977;44.816;20.538;2023-02-22T15:05:35;99677.22;;;15.21;54.99
66176;BME280;52977;44.816;20.538;2023-02-22T15:08:06;99683.22;;;15.11;54.81
66176;BME280;52977;44.816;20.538;2023-02-22T15:10:46;99654.75;;;15.03;55.08
66176;BME280;52977;44.816;20.538;2023-02-22T15:13:18;99666.00;;;15.14;54.97
66176;BME280;52977;44.816;20.538;2023-02-22T15:15:45;99677.47;;;15.32;55.08
66176;BME280;52977;44.816;20.538;2023-02-22T15:18:27;99674.34;;;15.33;54.50
66176;BME280;52977;44.816;20.538;2023-02-22T15:21:01;99665.41;;;15.20;54.45
66176;BME280;52977;44.816;20.538;2023-02-22T15:23:38;99646.13;;;14.89;54.15
66176;BME280;52977;44.816;20.538;2023-02-22T15:26:05;99683.22;;;15.11;54.49
66176;BME280;52977;44.816;20.538;2023-02-22T15:28:33;99665.53;;;14.80;54.90
66176;BME280;52977;44.816;20.538;2023-02-22T15:33:51;99680.19;;;15.00;54.73
66176;BME280;52977;44.816;20.538;2023-02-22T15:36:25;99673.34;;;14.78;55.02
66176;BME280;52977;44.816;20.538;2023-02-22T15:38:53;99687.03;;;15.06;57.87